Time;durP1;ratioP1;P1;durP2;ratioP2;P2;SDS_P1;SDS_P2;PMS_P1;PMS_P2;Temp;Humidity;BMP_temperature;BMP_pressure;BME280_temperature;BME280_humidity;BME280_pressure;Samples;Min_cycle;Max_cycle;Signal;HPM_P1;HPM_P2
2023/07/03 00:00:42;;;;;;;0.38;0.38;;;16.20;99.90;;;;;;5134719;27;20041;-73
2023/07/03 00:03:13;;;;;;;0.30;0.30;;;16.20;99.90;;;;;;5134812;27;20133;-72
2023/07/03 00:05:43;;;;;;;0.45;0.40;;;16.20;99.90;;;;;;5134433;27;20455;-73
2023/07/03 00:08:12;;;;;;;0.30;0.30;;;16.20;99.90;;;;;;5134774;27;20035;-72
2023/07/03 00:10:37;;;;;;;0.52;0.52;;;16.20;99.90;;;;;;5134675;28;20096;-74
2023/07/03 00:13:04;;;;;;;0.57;0.57;;;16.20;99.90;;;;;;5134606;28;20405;-73
2023/07/03 00:15:29;;;;;;;0.40;0.40;;;16.20;99.90;;;;;;5134636;28;20070;-72
2023/07/03 00:17:55;;;;;;;0.40;0.40;;;16.30;99.90;;;;;;5134681;28;20073;-73
2023/07/03 00:20:20;;;;;;;0.40;0.40;;;16.20;99.90;;;;;;5134478;28;20038;-73
2023/07/03 00:22:47;;;;;;;0.50;0.50;;;16.30;99.90;;;;;;5134667;28;20031;-72
2023/07/03 00:25:14;;;;;;;0.47;0.47;;;16.20;99.90;;;;;;5134582;28;20078;-72
2023/07/03 00:27:40;;;;;;;;;;;16.20;99.90;;;;;;5134605;28;20043;-73
2023/07/03 00:30:08;;;;;;;0.47;0.47;;;16.20;99.90;;;;;;5134449;28;19921;-72
2023/07/03 00:32:33;;;;;;;0.32;0.32;;;16.20;99.90;;;;;;5138056;27;20039;-73
2023/07/03 00:34:59;;;;;;;0.40;0.40;;;16.20;99.90;;;;;;5138407;27;20095;-73
2023/07/03 00:37:26;;;;;;;0.30;0.30;;;16.10;99.90;;;;;;5138579;27;20054;-73
2023/07/03 00:39:51;;;;;;;0.40;0.40;;;16.10;99.90;;;;;;5138628;27;20050;-74
2023/07/03 00:42:17;;;;;;;0.40;0.40;;;16.10;99.90;;;;;;5138409;27;20467;-72
2023/07/03 00:44:43;;;;;;;0.40;0.40;;;16.10;99.90;;;;;;5138877;27;20176;-73
2023/07/03 00:47:10;;;;;;;0.30;0.30;;;16.10;99.90;;;;;;5120068;27;20046;-73
2023/07/03 00:49:36;;;;;;;0.30;0.30;;;16.10;99.90;;;;;;5138267;27;20104;-73
2023/07/03 00:52:03;;;;;;;0.40;0.40;;;16.10;99.90;;;;;;5138298;27;20035;-72
2023/07/03 00:54:29;;;;;;;0.40;0.40;;;16.10;99.90;;;;;;5138214;27;20047;-73
2023/07/03 00:56:55;;;;;;;0.30;0.30;;;16.10;99.90;;;;;;5137899;27;20046;-73
2023/07/03 00:59:22;;;;;;;0.38;0.38;;;16.10;99.90;;;;;;5138377;27;20505;-72
2023/07/03 01:01:52;;;;;;;0.40;0.40;;;16.10;99.90;;;;;;5138153;27;20041;-72
2023/07/03 01:04:30;;;;;;;0.40;0.40;;;16.10;99.90;;;;;;5137895;27;20050;-73
2023/07/03 01:07:07;;;;;;;0.50;0.50;;;16.10;99.90;;;;;;5138091;27;20082;-72
2023/07/03 01:09:40;;;;;;;;;;;16.00;99.90;;;;;;5138307;27;20084;-73
2023/07/03 01:12:06;;;;;;;0.40;0.40;;;16.00;99.90;;;;;;5119670;27;19958;-72
2023/07/03 01:14:34;;;;;;;0.40;0.40;;;16.00;99.90;;;;;;5137718;27;20450;-73
2023/07/03 01:17:01;;;;;;;0.40;0.40;;;16.00;99.90;;;;;;5137807;27;20078;-72
2023/07/03 01:19:31;;;;;;;0.75;0.75;;;16.00;99.90;;;;;;5119645;27;20035;-72
2023/07/03 01:22:07;;;;;;;0.40;0.40;;;16.00;99.90;;;;;;5137473;27;20083;-73
2023/07/03 01:24:59;;;;;;;0.40;0.40;;;16.00;99.90;;;;;;5138391;27;20107;-73
2023/07/03 01:27:34;;;;;;;0.75;0.68;;;16.00;99.90;;;;;;5136896;27;20457;-74
2023/07/03 01:30:01;;;;;;;0.40;0.40;;;16.00;99.90;;;;;;5137548;27;20035;-73
2023/07/03 01:32:29;;;;;;;0.50;0.50;;;16.00;99.90;;;;;;5137546;27;20043;-72
2023/07/03 01:34:56;;;;;;;0.40;0.40;;;16.00;99.90;;;;;;5119258;27;20083;-73
2023/07/03 01:37:27;;;;;;;1.05;0.55;;;16.00;99.90;;;;;;5137384;27;20046;-72
2023/07/03 01:39:55;;;;;;;0.30;0.30;;;16.00;99.90;;;;;;5102519;27;20050;-73
2023/07/03 01:42:22;;;;;;;0.40;0.40;;;16.10;99.90;;;;;;5137325;27;20034;-72
2023/07/03 01:44:48;;;;;;;0.40;0.40;;;16.00;99.90;;;;;;5136691;27;20043;-73
2023/07/03 01:47:14;;;;;;;0.30;0.30;;;16.00;99.90;;;;;;5137208;27;20046;-72
2023/07/03 01:49:40;;;;;;;0.30;0.30;;;16.00;99.90;;;;;;5137218;27;20405;-72
2023/07/03 01:52:34;;;;;;;0.30;0.30;;;16.00;99.90;;;;;;5137223;27;20042;-73
2023/07/03 01:55:05;;;;;;;1.67;1.05;;;16.00;99.90;;;;;;5137373;27;20035;-73
2023/07/03 01:57:41;;;;;;;0.40;0.40;;;16.00;99.90;;;;;;5118760;27;20042;-73
2023/07/03 02:00:12;;;;;;;0.40;0.40;;;16.10;99.90;;;;;;5118777;27;20120;-72
2023/07/03 02:02:39;;;;;;;0.40;0.40;;;16.00;99.90;;;;;;5137426;27;20130;-72
2023/07/03 02:05:07;;;;;;;;;;;16.10;99.90;;;;;;5137395;27;20055;-73
2023/07/03 02:07:35;;;;;;;2.65;0.70;;;16.10;99.90;;;;;;5136871;27;19915;-73
2023/07/03 02:10:02;;;;;;;0.32;0.32;;;16.10;99.90;;;;;;5136805;27;20035;-72
2023/07/03 02:12:28;;;;;;;0.30;0.30;;;16.10;99.90;;;;;;5136756;27;20092;-73
2023/07/03 02:14:55;;;;;;;0.40;0.40;;;16.10;99.90;;;;;;5136895;27;20390;-73
2023/07/03 02:17:20;;;;;;;0.40;0.40;;;16.10;99.90;;;;;;5137029;27;20295;-73
2023/07/03 02:19:46;;;;;;;0.40;0.40;;;16.10;99.90;;;;;;5136664;27;20463;-73
2023/07/03 02:22:12;;;;;;;0.40;0.40;;;16.10;99.90;;;;;;5136635;27;20050;-73
2023/07/03 02:24:37;;;;;;;0.50;0.50;;;16.10;99.90;;;;;;5136619;27;20051;-73
2023/07/03 02:27:03;;;;;;;0.40;0.40;;;16.10;99.90;;;;;;5136499;27;20031;-72
2023/07/03 02:29:29;;;;;;;0.70;0.70;;;16.10;99.90;;;;;;5136423;27;20043;-73
2023/07/03 02:31:54;;;;;;;0.40;0.40;;;16.10;99.90;;;;;;5136801;27;20043;-72
2023/07/03 02:34:21;;;;;;;0.40;0.40;;;16.00;99.90;;;;;;5136408;27;20039;-73
2023/07/03 02:36:47;;;;;;;;;;;16.10;99.90;;;;;;5136661;27;20535;-72
2023/07/03 02:39:13;;;;;;;0.40;0.40;;;16.10;99.90;;;;;;5136357;27;19915;-73
2023/07/03 02:41:39;;;;;;;0.40;0.40;;;16.10;99.90;;;;;;5136152;27;20087;-73
2023/07/03 02:44:05;;;;;;;0.40;0.40;;;16.10;99.90;;;;;;5136231;27;20043;-72
2023/07/03 02:46:30;;;;;;;9.67;2.47;;;16.10;99.90;;;;;;5136121;27;20459;-73
2023/07/03 02:48:56;;;;;;;0.50;0.50;;;16.10;99.90;;;;;;5135967;27;20041;-72
2023/07/03 02:51:22;;;;;;;0.40;0.40;;;16.10;99.90;;;;;;5136090;27;20043;-72
2023/07/03 02:53:47;;;;;;;0.40;0.40;;;16.10;99.90;;;;;;5136050;27;20035;-72
2023/07/03 02:56:13;;;;;;;0.40;0.40;;;16.10;99.90;;;;;;5134608;27;20039;-72
2023/07/03 02:58:39;;;;;;;1.07;1.07;;;16.10;99.90;;;;;;5136340;27;20052;-72
2023/07/03 03:01:04;;;;;;;0.63;0.63;;;16.10;99.90;;;;;;5136467;27;20038;-74
2023/07/03 03:03:30;;;;;;;0.40;0.40;;;16.10;99.90;;;;;;5136051;27;20043;-72
2023/07/03 03:05:56;;;;;;;0.40;0.40;;;16.00;99.90;;;;;;5135823;27;20119;-72
2023/07/03 03:08:23;;;;;;;0.40;0.40;;;16.00;99.90;;;;;;5135714;27;20078;-74
2023/07/03 03:10:53;;;;;;;0.50;0.50;;;16.00;99.90;;;;;;5135554;27;20039;-72
2023/07/03 03:13:19;;;;;;;0.40;0.40;;;15.90;99.90;;;;;;5136229;27;20043;-72
2023/07/03 03:15:47;;;;;;;0.40;0.40;;;15.90;99.90;;;;;;5135568;27;20054;-72
2023/07/03 03:18:13;;;;;;;0.95;0.70;;;15.80;99.90;;;;;;5135435;27;20127;-72
2023/07/03 03:20:39;;;;;;;0.37;0.37;;;15.70;99.90;;;;;;5135367;27;20078;-73
2023/07/03 03:23:05;;;;;;;0.40;0.40;;;15.60;99.90;;;;;;5135515;27;20043;-72
2023/07/03 03:25:31;;;;;;;0.50;0.50;;;15.60;99.90;;;;;;5135228;27;20046;-72
2023/07/03 03:27:57;;;;;;;0.60;0.60;;;15.40;99.90;;;;;;5135333;27;20043;-73
2023/07/03 03:30:24;;;;;;;0.40;0.40;;;15.40;99.90;;;;;;5135225;27;20035;-73
2023/07/03 03:32:50;;;;;;;0.50;0.50;;;15.30;99.90;;;;;;5135187;27;20138;-74
2023/07/03 03:35:15;;;;;;;0.60;0.60;;;15.20;99.90;;;;;;5134036;27;20046;-75
2023/07/03 03:37:41;;;;;;;0.40;0.40;;;15.20;99.90;;;;;;5135148;27;20122;-72
2023/07/03 03:40:08;;;;;;;0.50;0.50;;;15.00;99.90;;;;;;5135145;27;20035;-73
2023/07/03 03:42:34;;;;;;;0.40;0.40;;;15.10;99.90;;;;;;5135003;27;20047;-73
2023/07/03 03:45:00;;;;;;;0.40;0.40;;;15.10;99.90;;;;;;5134981;27;20445;-74
2023/07/03 03:47:26;;;;;;;0.43;0.43;;;15.00;99.90;;;;;;5134941;27;20368;-74
2023/07/03 03:49:53;;;;;;;0.50;0.50;;;15.00;99.90;;;;;;5116644;27;20031;-73
2023/07/03 03:52:19;;;;;;;0.50;0.50;;;15.00;99.90;;;;;;5134697;27;20055;-73
2023/07/03 03:54:46;;;;;;;0.40;0.40;;;15.00;99.90;;;;;;5134810;27;20045;-72
2023/07/03 03:57:13;;;;;;;0.40;0.40;;;15.00;99.90;;;;;;5135031;27;20050;-72
2023/07/03 03:59:39;;;;;;;0.40;0.40;;;15.00;99.90;;;;;;5134815;27;20043;-72
2023/07/03 04:02:05;;;;;;;0.60;0.60;;;14.90;99.90;;;;;;5134899;27;20118;-73
2023/07/03 04:04:31;;;;;;;0.40;0.40;;;14.90;99.90;;;;;;5134765;27;20491;-72
2023/07/03 04:06:57;;;;;;;0.50;0.50;;;14.90;99.90;;;;;;5134419;27;20391;-72
2023/07/03 04:09:22;;;;;;;0.40;0.40;;;14.90;99.90;;;;;;5134489;27;20387;-73
2023/07/03 04:11:48;;;;;;;0.50;0.50;;;14.90;99.90;;;;;;5134666;27;20049;-73
2023/07/03 04:14:15;;;;;;;0.50;0.50;;;14.90;99.90;;;;;;5134445;28;20039;-73
2023/07/03 04:16:41;;;;;;;0.43;0.43;;;14.90;99.90;;;;;;5134722;28;20039;-74
2023/07/03 04:19:07;;;;;;;0.50;0.50;;;14.90;99.90;;;;;;5134688;28;20039;-73
2023/07/03 04:21:32;;;;;;;0.40;0.40;;;14.90;99.90;;;;;;5134623;28;20082;-74
2023/07/03 04:23:58;;;;;;;0.50;0.50;;;14.90;99.90;;;;;;5116255;28;20086;-74
2023/07/03 04:26:24;;;;;;;0.50;0.50;;;14.90;99.90;;;;;;5134820;28;20373;-73
2023/07/03 04:28:50;;;;;;;0.40;0.40;;;14.90;99.90;;;;;;5134678;28;20043;-73
2023/07/03 04:31:15;;;;;;;0.40;0.40;;;14.80;99.90;;;;;;5134159;28;20498;-73
2023/07/03 04:33:43;;;;;;;0.50;0.50;;;14.80;99.90;;;;;;5134498;28;20046;-72
2023/07/03 04:36:11;;;;;;;0.40;0.40;;;14.80;99.90;;;;;;5134356;28;20043;-74
2023/07/03 04:38:38;;;;;;;0.60;0.60;;;14.70;99.90;;;;;;5134248;28;20447;-72
2023/07/03 04:41:04;;;;;;;0.40;0.40;;;14.70;99.90;;;;;;5134517;28;20425;-72
2023/07/03 04:43:31;;;;;;;0.40;0.40;;;14.80;99.90;;;;;;5134595;28;20035;-73
2023/07/03 04:46:03;;;;;;;0.60;0.60;;;14.70;99.90;;;;;;5134672;28;20043;-78
2023/07/03 04:48:29;;;;;;;0.40;0.40;;;14.70;99.90;;;;;;5134275;28;20162;-74
2023/07/03 04:50:54;;;;;;;0.88;0.88;;;14.80;99.90;;;;;;5116266;28;20043;-75
2023/07/03 04:53:20;;;;;;;0.43;0.43;;;14.80;99.90;;;;;;5134146;28;20473;-74
2023/07/03 04:55:47;;;;;;;0.40;0.40;;;14.80;99.90;;;;;;5134269;28;20035;-73
2023/07/03 04:58:12;;;;;;;0.45;0.45;;;14.80;99.90;;;;;;5134290;28;20035;-74
2023/07/03 05:00:41;;;;;;;0.67;0.67;;;14.90;99.90;;;;;;5134175;28;20480;-74
2023/07/03 05:03:08;;;;;;;0.40;0.40;;;14.90;99.90;;;;;;5134233;28;20067;-77
2023/07/03 05:05:34;;;;;;;0.40;0.40;;;14.90;99.90;;;;;;5133900;28;20093;-73
2023/07/03 05:08:00;;;;;;;0.45;0.45;;;14.90;99.90;;;;;;5134051;28;20035;-73
2023/07/03 05:10:26;;;;;;;0.40;0.40;;;15.00;99.90;;;;;;5134089;28;20477;-73
2023/07/03 05:12:51;;;;;;;0.50;0.50;;;15.00;99.90;;;;;;5134088;28;20039;-74
2023/07/03 05:15:19;;;;;;;0.50;0.50;;;15.10;99.90;;;;;;5134461;28;20078;-73
2023/07/03 05:17:52;;;;;;;0.50;0.50;;;15.10;99.90;;;;;;5134050;27;20039;-72
2023/07/03 05:20:18;;;;;;;0.40;0.40;;;15.30;99.90;;;;;;5137780;27;20070;-74
2023/07/03 05:22:45;;;;;;;0.40;0.40;;;15.40;99.90;;;;;;5137598;27;20039;-74
2023/07/03 05:25:12;;;;;;;0.40;0.40;;;15.50;99.90;;;;;;5137680;27;20034;-73
2023/07/03 05:27:39;;;;;;;0.40;0.40;;;15.70;99.90;;;;;;5137816;27;20039;-74
2023/07/03 05:30:06;;;;;;;1.58;1.48;;;15.90;99.90;;;;;;5137549;27;20039;-74
2023/07/03 05:32:31;;;;;;;;;;;16.20;99.90;;;;;;5137981;27;20202;-74
2023/07/03 05:34:57;;;;;;;0.40;0.40;;;16.50;99.90;;;;;;5137416;27;19965;-73
2023/07/03 05:37:22;;;;;;;0.60;0.60;;;16.70;99.90;;;;;;5137464;27;20034;-74
2023/07/03 05:39:49;;;;;;;1.73;1.63;;;17.00;99.90;;;;;;5137579;27;20035;-74
2023/07/03 05:42:18;;;;;;;0.50;0.50;;;17.20;99.90;;;;;;5137672;27;20050;-73
2023/07/03 05:44:45;;;;;;;0.40;0.40;;;17.40;99.90;;;;;;5137495;27;20031;-73
2023/07/03 05:47:12;;;;;;;0.40;0.40;;;17.70;99.90;;;;;;5137309;27;20039;-74
2023/07/03 05:49:38;;;;;;;0.40;0.40;;;17.90;99.90;;;;;;5137142;27;20075;-74
2023/07/03 05:52:04;;;;;;;2.00;0.50;;;18.20;99.90;;;;;;5137187;27;20074;-76
2023/07/03 05:54:30;;;;;;;0.40;0.40;;;18.40;99.90;;;;;;5137261;27;20434;-79
2023/07/03 05:56:57;;;;;;;0.40;0.40;;;18.60;99.90;;;;;;5137500;27;20039;-79
2023/07/03 05:59:23;;;;;;;0.40;0.40;;;18.80;99.90;;;;;;5137367;27;20382;-78
2023/07/03 06:01:49;;;;;;;0.33;0.33;;;18.90;99.90;;;;;;5137036;27;20126;-78
2023/07/03 06:04:16;;;;;;;0.40;0.40;;;19.00;99.90;;;;;;5136605;27;20285;-75
2023/07/03 06:06:41;;;;;;;0.77;0.77;;;19.00;99.90;;;;;;5136981;27;20478;-75
2023/07/03 06:09:07;;;;;;;0.40;0.40;;;18.90;99.90;;;;;;5136534;27;20122;-73
2023/07/03 06:11:33;;;;;;;0.40;0.40;;;19.00;99.90;;;;;;5136693;27;20039;-72
2023/07/03 06:13:59;;;;;;;0.50;0.50;;;19.20;99.90;;;;;;5136884;27;20076;-77
2023/07/03 06:16:27;;;;;;;0.40;0.40;;;19.40;99.90;;;;;;5136743;27;20035;-78
2023/07/03 06:18:53;;;;;;;0.60;0.60;;;19.50;99.90;;;;;;5136352;27;20043;-77
2023/07/03 06:21:19;;;;;;;0.40;0.40;;;19.50;99.90;;;;;;5136318;27;20428;-75
2023/07/03 06:23:44;;;;;;;0.50;0.50;;;19.60;99.90;;;;;;5136633;27;20047;-73
2023/07/03 06:26:10;;;;;;;0.50;0.50;;;19.50;99.90;;;;;;5136989;27;20177;-73
2023/07/03 06:28:36;;;;;;;0.40;0.40;;;19.50;99.90;;;;;;5136415;27;20043;-73
2023/07/03 06:31:02;;;;;;;0.50;0.50;;;19.60;99.90;;;;;;5136337;27;20074;-73
2023/07/03 06:33:28;;;;;;;0.30;0.30;;;19.60;99.90;;;;;;5136491;27;20130;-73
2023/07/03 06:35:54;;;;;;;0.40;0.40;;;19.30;99.90;;;;;;5136438;27;20445;-72
2023/07/03 06:38:19;;;;;;;0.40;0.40;;;19.20;99.90;;;;;;5136344;27;20478;-72
2023/07/03 06:40:55;;;;;;;0.40;0.40;;;19.10;99.90;;;;;;5136301;27;20035;-72
2023/07/03 06:43:21;;;;;;;0.40;0.40;;;19.00;99.90;;;;;;5136252;27;20043;-73
2023/07/03 06:45:46;;;;;;;0.30;0.30;;;18.90;99.90;;;;;;5136091;27;20043;-71
2023/07/03 06:48:12;;;;;;;0.37;0.37;;;18.90;99.90;;;;;;5135973;27;20043;-70
2023/07/03 06:50:38;;;;;;;0.50;0.50;;;18.90;99.90;;;;;;5136692;27;20043;-72
2023/07/03 06:53:03;;;;;;;0.40;0.40;;;19.00;99.90;;;;;;5135999;27;20099;-71
2023/07/03 06:55:29;;;;;;;0.53;0.50;;;19.00;99.90;;;;;;5136110;27;20518;-72
2023/07/03 06:57:54;;;;;;;0.30;0.30;;;18.90;99.90;;;;;;5135966;27;20079;-73
2023/07/03 07:00:20;;;;;;;0.30;0.30;;;18.80;99.90;;;;;;5135816;27;20039;-74
2023/07/03 07:02:46;;;;;;;1.07;0.70;;;18.90;99.90;;;;;;5135802;27;20083;-74
2023/07/03 07:05:11;;;;;;;0.30;0.30;;;18.80;99.90;;;;;;5133653;27;20100;-74
2023/07/03 07:07:37;;;;;;;0.30;0.30;;;18.70;99.90;;;;;;5135255;27;20035;-73
2023/07/03 07:10:03;;;;;;;0.30;0.30;;;18.80;99.90;;;;;;5135626;27;20046;-73
2023/07/03 07:12:28;;;;;;;0.40;0.40;;;18.90;99.90;;;;;;5135538;27;20039;-73
2023/07/03 07:14:54;;;;;;;0.50;0.50;;;19.00;99.90;;;;;;5133829;27;20051;-77
2023/07/03 07:17:21;;;;;;;1.70;0.73;;;19.20;99.90;;;;;;5133614;27;20042;-76
2023/07/03 07:19:47;;;;;;;0.30;0.30;;;19.30;99.90;;;;;;5134690;27;20354;-79
2023/07/03 07:22:13;;;;;;;0.33;0.33;;;19.20;99.90;;;;;;5117021;27;20035;-75
2023/07/03 07:24:38;;;;;;;0.37;0.37;;;19.20;99.90;;;;;;5135197;27;20035;-76
2023/07/03 07:27:05;;;;;;;0.30;0.30;;;19.10;99.90;;;;;;5134945;27;20088;-72
2023/07/03 07:29:31;;;;;;;0.30;0.30;;;19.00;99.90;;;;;;5135249;27;20035;-71
2023/07/03 07:31:57;;;;;;;0.32;0.32;;;18.80;99.90;;;;;;5134816;27;20039;-72
2023/07/03 07:34:23;;;;;;;0.35;0.35;;;18.60;99.90;;;;;;5134627;27;20062;-71
2023/07/03 07:36:49;;;;;;;0.40;0.40;;;18.50;99.90;;;;;;5116418;27;20466;-74
2023/07/03 07:39:17;;;;;;;0.30;0.30;;;18.70;99.90;;;;;;5135136;27;20031;-71
2023/07/03 07:41:44;;;;;;;0.40;0.40;;;18.80;99.90;;;;;;5133922;27;20043;-71
2023/07/03 07:44:10;;;;;;;0.30;0.30;;;18.70;99.90;;;;;;5134410;27;20115;-70
2023/07/03 07:46:36;;;;;;;0.40;0.40;;;18.70;99.90;;;;;;5134331;27;20134;-73
2023/07/03 07:49:02;;;;;;;0.30;0.30;;;18.60;99.90;;;;;;5134586;27;20054;-72
2023/07/03 07:51:29;;;;;;;0.40;0.40;;;18.50;99.90;;;;;;5134548;27;20039;-73
2023/07/03 07:53:55;;;;;;;0.38;0.38;;;18.40;99.90;;;;;;5134483;27;20035;-73
2023/07/03 07:56:22;;;;;;;0.40;0.40;;;18.40;99.90;;;;;;5134226;27;20050;-72
2023/07/03 07:58:48;;;;;;;0.40;0.40;;;18.30;99.90;;;;;;5134707;27;20047;-75
2023/07/03 08:01:14;;;;;;;0.40;0.40;;;18.40;99.90;;;;;;5134404;27;20390;-72
2023/07/03 08:03:41;;;;;;;0.40;0.40;;;18.40;99.90;;;;;;5134238;27;20130;-74
2023/07/03 08:06:08;;;;;;;0.40;0.40;;;18.60;99.90;;;;;;5134628;27;20382;-75
2023/07/03 08:08:33;;;;;;;0.40;0.40;;;18.90;99.90;;;;;;5134089;27;20110;-76
2023/07/03 08:11:01;;;;;;;0.40;0.40;;;19.20;99.90;;;;;;5134214;27;20463;-75
2023/07/03 08:13:29;;;;;;;1.05;0.50;;;19.50;99.90;;;;;;5134396;27;20050;-76
2023/07/03 08:15:55;;;;;;;0.40;0.40;;;19.70;99.90;;;;;;5133820;28;20039;-74
2023/07/03 08:18:21;;;;;;;0.60;0.60;;;19.80;99.90;;;;;;5134456;28;20038;-75
2023/07/03 08:20:49;;;;;;;1.40;1.15;;;20.00;99.90;;;;;;5134231;28;20046;-72
2023/07/03 08:23:15;;;;;;;0.45;0.45;;;20.10;99.90;;;;;;5133631;27;20080;-75
2023/07/03 08:25:41;;;;;;;0.40;0.40;;;20.10;99.90;;;;;;5113427;28;20391;-71
2023/07/03 08:28:08;;;;;;;0.33;0.33;;;20.10;99.90;;;;;;5113443;28;20051;-72
2023/07/03 08:30:33;;;;;;;;;;;20.30;99.90;;;;;;5113922;28;20453;-73
2023/07/03 08:32:59;;;;;;;0.30;0.30;;;20.50;99.90;;;;;;5113440;28;19919;-75
2023/07/03 08:35:25;;;;;;;0.33;0.33;;;20.70;99.90;;;;;;5113690;28;20043;-72
2023/07/03 08:37:52;;;;;;;0.40;0.40;;;20.60;99.90;;;;;;5113634;28;20046;-73
2023/07/03 08:40:19;;;;;;;0.40;0.40;;;20.60;99.90;;;;;;5113358;28;20039;-74
2023/07/03 08:42:51;;;;;;;0.40;0.40;;;20.80;99.90;;;;;;5112998;28;20502;-74
2023/07/03 08:45:18;;;;;;;0.30;0.30;;;20.90;99.90;;;;;;5113434;28;20028;-72
2023/07/03 08:47:46;;;;;;;0.38;0.38;;;21.00;99.90;;;;;;5113750;28;20048;-72
2023/07/03 08:50:17;;;;;;;0.30;0.30;;;21.10;99.90;;;;;;5113542;28;20044;-72
2023/07/03 08:52:53;;;;;;;0.30;0.30;;;20.90;99.90;;;;;;5113806;28;20085;-73
2023/07/03 08:55:23;;;;;;;0.40;0.40;;;21.10;99.90;;;;;;5117424;28;20083;-71
2023/07/03 08:57:49;;;;;;;0.47;0.47;;;21.20;99.90;;;;;;5117087;28;20046;-72
2023/07/03 09:00:15;;;;;;;0.30;0.30;;;21.30;99.90;;;;;;5117582;28;20039;-72
2023/07/03 09:02:45;;;;;;;0.30;0.30;;;21.40;99.90;;;;;;5117360;28;20288;-71
2023/07/03 09:05:21;;;;;;;0.30;0.30;;;21.50;99.90;;;;;;5117503;28;20063;-72
2023/07/03 09:07:52;;;;;;;0.30;0.30;;;21.60;99.90;;;;;;5117160;28;20044;-71
2023/07/03 09:10:30;;;;;;;0.45;0.45;;;21.60;99.90;;;;;;5116668;28;20035;-71
2023/07/03 09:12:55;;;;;;;0.40;0.40;;;21.70;99.90;;;;;;5117246;28;20475;-76
2023/07/03 09:15:39;;;;;;;0.37;0.37;;;21.80;99.90;;;;;;5116934;28;20035;-73
2023/07/03 09:18:12;;;;;;;0.30;0.30;;;22.00;99.90;;;;;;5116869;28;20036;-69
2023/07/03 09:20:40;;;;;;;0.30;0.30;;;22.00;99.90;;;;;;5117049;28;20479;-70
2023/07/03 09:23:15;;;;;;;0.40;0.40;;;21.70;99.90;;;;;;5116735;28;20046;-71
2023/07/03 09:25:47;;;;;;;0.30;0.30;;;21.50;99.90;;;;;;5117093;28;20391;-71
2023/07/03 09:28:12;;;;;;;0.30;0.30;;;21.20;99.90;;;;;;5117137;28;20043;-71
2023/07/03 09:30:38;;;;;;;0.37;0.37;;;20.90;99.90;;;;;;5116953;28;20047;-70
2023/07/03 09:33:06;;;;;;;0.30;0.30;;;20.70;99.90;;;;;;5116917;28;20135;-72
2023/07/03 09:35:50;;;;;;;0.30;0.30;;;20.50;99.90;;;;;;5116603;28;20101;-73
2023/07/03 09:38:21;;;;;;;0.30;0.30;;;20.70;99.90;;;;;;5116787;28;20049;-71
2023/07/03 09:40:53;;;;;;;0.30;0.30;;;20.90;99.90;;;;;;5116825;28;20069;-77
2023/07/03 09:43:22;;;;;;;0.52;0.52;;;20.90;99.90;;;;;;5116660;28;20102;-72
2023/07/03 09:45:49;;;;;;;0.30;0.30;;;20.90;99.90;;;;;;5098532;28;20073;-71
2023/07/03 09:48:26;;;;;;;0.30;0.30;;;20.80;99.90;;;;;;5116087;28;20035;-74
2023/07/03 09:50:52;;;;;;;0.30;0.30;;;20.90;99.90;;;;;;5116550;28;20100;-75
2023/07/03 09:53:21;;;;;;;0.30;0.30;;;20.90;99.90;;;;;;5116349;28;20399;-71
2023/07/03 09:55:58;;;;;;;0.30;0.30;;;20.80;99.90;;;;;;5116355;28;20043;-72
2023/07/03 09:58:27;;;;;;;0.30;0.30;;;20.60;99.90;;;;;;5116012;28;20035;-72
2023/07/03 10:00:57;;;;;;;0.30;0.30;;;20.60;99.90;;;;;;5116355;28;20035;-71
2023/07/03 10:03:29;;;;;;;0.30;0.30;;;20.50;99.90;;;;;;5116323;28;20047;-71
2023/07/03 10:05:56;;;;;;;0.43;0.40;;;20.40;99.90;;;;;;5116142;28;20086;-71
2023/07/03 10:08:27;;;;;;;0.28;0.28;;;20.40;99.90;;;;;;5116052;28;20086;-72
2023/07/03 10:10:56;;;;;;;0.30;0.30;;;20.40;99.90;;;;;;5115997;28;20075;-71
2023/07/03 10:13:33;;;;;;;0.30;0.30;;;20.20;99.90;;;;;;5116123;28;20039;-72
2023/07/03 10:15:59;;;;;;;0.30;0.30;;;20.10;99.90;;;;;;5097920;28;20083;-71
2023/07/03 10:18:27;;;;;;;;;;;20.10;99.90;;;;;;5116314;28;20446;-71
2023/07/03 10:20:54;;;;;;;0.30;0.30;;;20.10;99.90;;;;;;5115892;28;19922;-71
2023/07/03 10:23:23;;;;;;;0.40;0.40;;;20.00;99.90;;;;;;5115885;28;20118;-72
2023/07/03 10:26:30;;;;;;;0.30;0.30;;;20.20;99.90;;;;;;5115819;28;20039;-71
2023/07/03 10:29:22;;;;;;;0.30;0.30;;;20.40;99.90;;;;;;5094994;28;20044;-70
2023/07/03 10:31:55;;;;;;;0.40;0.40;;;20.30;99.90;;;;;;5115523;28;20526;-72
2023/07/03 10:34:37;;;;;;;0.30;0.30;;;20.20;99.90;;;;;;5115771;28;20055;-72
2023/07/03 10:37:05;;;;;;;0.40;0.40;;;20.20;99.90;;;;;;5115312;28;20075;-72
2023/07/03 10:39:51;;;;;;;0.30;0.30;;;20.40;99.90;;;;;;5115536;28;20036;-70
2023/07/03 10:42:48;;;;;;;0.35;0.35;;;20.80;99.90;;;;;;5115486;28;20039;-75
2023/07/03 10:45:15;;;;;;;0.30;0.30;;;20.90;99.90;;;;;;5100521;28;20044;-77
2023/07/03 10:47:48;;;;;;;0.50;0.50;;;20.80;99.90;;;;;;5115461;28;20036;-72
2023/07/03 10:50:17;;;;;;;0.30;0.30;;;20.80;99.90;;;;;;5114968;28;20039;-73
2023/07/03 10:53:04;;;;;;;0.30;0.30;;;20.60;99.90;;;;;;5114798;28;20734;-73
2023/07/03 10:55:33;;;;;;;0.40;0.40;;;20.30;99.90;;;;;;5115150;28;20040;-73
2023/07/03 10:58:10;;;;;;;0.30;0.30;;;20.20;99.90;;;;;;5114965;28;20047;-74
2023/07/03 11:00:46;;;;;;;;;;;20.30;99.90;;;;;;5115516;28;20085;-73
2023/07/03 11:03:29;;;;;;;0.45;0.45;;;20.50;99.90;;;;;;5097154;28;20347;-74
2023/07/03 11:06:05;;;;;;;0.30;0.30;;;20.60;99.90;;;;;;5115084;28;20387;-74
2023/07/03 11:08:47;;;;;;;0.30;0.30;;;20.80;99.90;;;;;;5114854;28;20047;-74
2023/07/03 11:11:42;;;;;;;0.30;0.30;;;21.00;98.70;;;;;;5114622;28;20048;-74
2023/07/03 11:14:17;;;;;;;0.30;0.30;;;21.10;98.40;;;;;;5114930;28;20052;-73
2023/07/03 11:16:58;;;;;;;0.38;0.30;;;21.10;97.80;;;;;;5114217;28;20035;-72
2023/07/03 11:19:32;;;;;;;0.43;0.43;;;21.30;98.80;;;;;;5114637;28;20051;-73
2023/07/03 11:22:05;;;;;;;0.30;0.30;;;21.30;97.90;;;;;;5096605;28;20039;-74
2023/07/03 11:24:34;;;;;;;0.40;0.40;;;21.20;98.50;;;;;;5114787;28;20036;-74
2023/07/03 11:27:03;;;;;;;0.30;0.30;;;21.10;98.70;;;;;;5114664;28;20054;-73
2023/07/03 11:29:29;;;;;;;0.30;0.30;;;21.10;98.90;;;;;;5114375;28;20032;-74
2023/07/03 11:31:56;;;;;;;0.30;0.30;;;20.90;99.00;;;;;;5114592;28;20032;-73
2023/07/03 11:34:26;;;;;;;0.22;0.22;;;20.80;98.70;;;;;;5114429;28;20475;-74
2023/07/03 11:36:54;;;;;;;0.30;0.30;;;20.70;98.80;;;;;;5114235;28;20047;-73
2023/07/03 11:39:28;;;;;;;0.30;0.30;;;21.00;99.50;;;;;;5114520;28;20043;-74
2023/07/03 11:42:01;;;;;;;2.25;2.15;;;21.30;98.70;;;;;;5114463;28;20519;-72
2023/07/03 11:44:46;;;;;;;0.30;0.30;;;21.50;98.90;;;;;;5114142;28;20093;-73
2023/07/03 11:47:28;;;;;;;0.30;0.30;;;21.80;98.30;;;;;;5114334;28;20043;-72
2023/07/03 11:50:00;;;;;;;0.30;0.30;;;22.10;98.70;;;;;;5114078;28;20043;-73
2023/07/03 11:52:32;;;;;;;0.30;0.30;;;22.20;98.60;;;;;;5113874;28;20082;-73
2023/07/03 11:55:11;;;;;;;0.30;0.30;;;21.80;98.40;;;;;;5113961;28;20044;-75
2023/07/03 11:57:40;;;;;;;0.30;0.30;;;21.60;99.40;;;;;;5113881;28;20513;-74
2023/07/03 12:00:22;;;;;;;0.30;0.30;;;21.30;99.80;;;;;;5114213;28;20512;-73
2023/07/03 12:02:59;;;;;;;0.30;0.30;;;21.00;99.90;;;;;;5113874;28;20056;-72
2023/07/03 12:05:43;;;;;;;0.30;0.30;;;20.80;99.90;;;;;;5113738;28;20058;-74
2023/07/03 12:08:36;;;;;;;0.30;0.30;;;20.50;99.90;;;;;;5113659;28;20399;-74
2023/07/03 12:11:03;;;;;;;0.30;0.30;;;20.50;99.90;;;;;;5114067;28;20043;-74
2023/07/03 12:13:50;;;;;;;0.30;0.30;;;20.50;99.90;;;;;;5113955;28;20502;-75
2023/07/03 12:16:22;;;;;;;0.32;0.32;;;20.80;99.90;;;;;;5113730;28;20086;-74
2023/07/03 12:19:02;;;;;;;0.30;0.30;;;21.00;99.90;;;;;;5113715;28;20051;-73
2023/07/03 12:21:44;;;;;;;0.22;0.22;;;21.30;99.90;;;;;;5113994;28;20051;-75
2023/07/03 12:24:27;;;;;;;0.30;0.30;;;21.90;99.90;;;;;;5114125;28;20044;-73
2023/07/03 12:27:00;;;;;;;0.35;0.35;;;22.10;99.50;;;;;;5113613;28;20819;-74
2023/07/03 12:29:28;;;;;;;0.20;0.20;;;22.00;98.90;;;;;;5118435;28;20039;-73
2023/07/03 12:32:06;;;;;;;0.30;0.30;;;21.60;97.60;;;;;;5117947;28;20530;-74
2023/07/03 12:34:33;;;;;;;0.40;0.40;;;21.40;98.60;;;;;;5118159;28;20041;-74
2023/07/03 12:37:03;;;;;;;0.30;0.30;;;21.20;98.20;;;;;;5117691;28;20404;-73
2023/07/03 12:39:31;;;;;;;0.20;0.20;;;20.90;98.20;;;;;;5117825;28;20379;-73
2023/07/03 12:42:08;;;;;;;0.22;0.22;;;20.80;98.90;;;;;;5117589;28;20096;-74
2023/07/03 12:44:34;;;;;;;0.30;0.30;;;20.60;99.00;;;;;;5117924;28;20499;-72
2023/07/03 12:47:09;;;;;;;0.28;0.28;;;20.60;99.80;;;;;;5133744;27;20036;-73
2023/07/03 12:49:46;;;;;;;0.30;0.30;;;20.70;99.80;;;;;;5117712;28;20122;-73
2023/07/03 12:52:14;;;;;;;0.30;0.30;;;20.60;99.90;;;;;;5117745;28;20039;-72
2023/07/03 12:54:39;;;;;;;0.30;0.30;;;20.50;99.70;;;;;;5117743;28;20035;-72
2023/07/03 12:57:06;;;;;;;0.30;0.30;;;20.20;99.60;;;;;;5117566;28;20040;-73